sensor_id;sensor_type;location;lat;lon;timestamp;P1;durP1;ratioP1;P2;durP2;ratioP2
27670;SDS011;15077;49.704;9.908;2022-12-19T00:01:15;29.02;;;15.18;;
27670;SDS011;15077;49.704;9.908;2022-12-19T00:03:45;34.90;;;17.60;;
27670;SDS011;15077;49.704;9.908;2022-12-19T00:06:18;33.67;;;18.05;;
27670;SDS011;15077;49.704;9.908;2022-12-19T00:08:45;27.58;;;13.35;;
27670;SDS011;15077;49.704;9.908;2022-12-19T00:11:14;29.30;;;15.50;;
27670;SDS011;15077;49.704;9.908;2022-12-19T00:13:43;38.33;;;17.75;;
27670;SDS011;15077;49.704;9.908;2022-12-19T00:16:11;37.75;;;19.38;;
27670;SDS011;15077;49.704;9.908;2022-12-19T00:18:44;31.73;;;15.82;;
27670;SDS011;15077;49.704;9.908;2022-12-19T00:21:12;29.77;;;14.43;;
27670;SDS011;15077;49.704;9.908;2022-12-19T00:23:43;35.67;;;18.23;;
27670;SDS011;15077;49.704;9.908;2022-12-19T00:28:43;39.58;;;19.77;;
27670;SDS011;15077;49.704;9.908;2022-12-19T00:31:13;38.35;;;19.73;;
27670;SDS011;15077;49.704;9.908;2022-12-19T00:33:41;33.85;;;17.52;;
27670;SDS011;15077;49.704;9.908;2022-12-19T00:36:09;38.35;;;16.83;;
27670;SDS011;15077;49.704;9.908;2022-12-19T00:38:38;21.50;;;13.05;;
27670;SDS011;15077;49.704;9.908;2022-12-19T00:41:08;24.90;;;12.35;;
27670;SDS011;15077;49.704;9.908;2022-12-19T00:43:42;26.42;;;14.85;;
27670;SDS011;15077;49.704;9.908;2022-12-19T00:46:10;30.25;;;15.32;;
27670;SDS011;15077;49.704;9.908;2022-12-19T00:48:39;35.95;;;16.80;;
27670;SDS011;15077;49.704;9.908;2022-12-19T00:51:09;41.22;;;19.85;;
27670;SDS011;15077;49.704;9.908;2022-12-19T00:53:38;37.95;;;18.48;;
27670;SDS011;15077;49.704;9.908;2022-12-19T00:56:06;32.75;;;17.23;;
27670;SDS011;15077;49.704;9.908;2022-12-19T00:58:37;33.30;;;17.15;;
27670;SDS011;15077;49.704;9.908;2022-12-19T01:01:07;28.40;;;15.15;;
27670;SDS011;15077;49.704;9.908;2022-12-19T01:03:38;25.50;;;14.10;;
27670;SDS011;15077;49.704;9.908;2022-12-19T01:06:05;30.67;;;15.25;;
27670;SDS011;15077;49.704;9.908;2022-12-19T01:08:31;31.02;;;15.48;;
27670;SDS011;15077;49.704;9.908;2022-12-19T01:10:57;27.30;;;13.48;;
27670;SDS011;15077;49.704;9.908;2022-12-19T01:13:24;26.85;;;14.13;;
27670;SDS011;15077;49.704;9.908;2022-12-19T01:15:53;27.33;;;13.77;;
27670;SDS011;15077;49.704;9.908;2022-12-19T01:18:20;21.52;;;12.18;;
27670;SDS011;15077;49.704;9.908;2022-12-19T01:20:48;19.63;;;10.55;;
27670;SDS011;15077;49.704;9.908;2022-12-19T01:23:18;26.23;;;12.50;;
27670;SDS011;15077;49.704;9.908;2022-12-19T01:25:47;20.42;;;11.18;;
27670;SDS011;15077;49.704;9.908;2022-12-19T01:28:17;25.48;;;12.30;;
27670;SDS011;15077;49.704;9.908;2022-12-19T01:30:43;21.38;;;11.68;;
27670;SDS011;15077;49.704;9.908;2022-12-19T01:33:12;18.58;;;10.70;;
27670;SDS011;15077;49.704;9.908;2022-12-19T01:35:40;20.30;;;11.05;;
27670;SDS011;15077;49.704;9.908;2022-12-19T01:38:09;23.75;;;12.80;;
27670;SDS011;15077;49.704;9.908;2022-12-19T01:40:48;27.77;;;13.68;;
27670;SDS011;15077;49.704;9.908;2022-12-19T01:43:21;25.38;;;12.75;;
27670;SDS011;15077;49.704;9.908;2022-12-19T01:46:03;24.58;;;12.57;;
27670;SDS011;15077;49.704;9.908;2022-12-19T01:48:38;20.90;;;11.95;;
27670;SDS011;15077;49.704;9.908;2022-12-19T01:51:17;20.98;;;11.60;;
27670;SDS011;15077;49.704;9.908;2022-12-19T01:53:49;29.52;;;14.80;;
27670;SDS011;15077;49.704;9.908;2022-12-19T01:56:27;27.15;;;14.90;;
27670;SDS011;15077;49.704;9.908;2022-12-19T01:58:58;23.25;;;13.00;;
27670;SDS011;15077;49.704;9.908;2022-12-19T02:01:31;33.17;;;16.90;;
27670;SDS011;15077;49.704;9.908;2022-12-19T02:03:56;39.42;;;20.77;;
27670;SDS011;15077;49.704;9.908;2022-12-19T02:06:26;32.42;;;17.38;;
27670;SDS011;15077;49.704;9.908;2022-12-19T02:08:54;30.98;;;15.05;;
27670;SDS011;15077;49.704;9.908;2022-12-19T02:11:21;24.00;;;13.57;;
27670;SDS011;15077;49.704;9.908;2022-12-19T02:13:47;34.85;;;18.05;;
27670;SDS011;15077;49.704;9.908;2022-12-19T02:31:05;47.95;;;21.52;;
27670;SDS011;15077;49.704;9.908;2022-12-19T02:36:40;44.00;;;21.80;;
27670;SDS011;15077;49.704;9.908;2022-12-19T02:39:22;44.58;;;22.10;;
27670;SDS011;15077;49.704;9.908;2022-12-19T02:42:01;50.47;;;26.83;;
27670;SDS011;15077;49.704;9.908;2022-12-19T02:44:33;48.92;;;23.92;;
27670;SDS011;15077;49.704;9.908;2022-12-19T02:47:05;54.53;;;25.50;;
27670;SDS011;15077;49.704;9.908;2022-12-19T02:49:33;44.05;;;22.85;;
27670;SDS011;15077;49.704;9.908;2022-12-19T02:52:10;39.45;;;20.75;;
27670;SDS011;15077;49.704;9.908;2022-12-19T02:55:00;33.80;;;17.58;;
27670;SDS011;15077;49.704;9.908;2022-12-19T03:00:45;39.47;;;19.73;;
27670;SDS011;15077;49.704;9.908;2022-12-19T03:03:46;39.67;;;19.92;;
27670;SDS011;15077;49.704;9.908;2022-12-19T03:06:39;33.67;;;16.38;;
27670;SDS011;15077;49.704;9.908;2022-12-19T03:12:31;49.28;;;23.15;;
27670;SDS011;15077;49.704;9.908;2022-12-19T03:15:04;50.90;;;25.83;;
27670;SDS011;15077;49.704;9.908;2022-12-19T03:17:41;49.50;;;25.20;;
27670;SDS011;15077;49.704;9.908;2022-12-19T03:20:07;43.38;;;22.02;;
27670;SDS011;15077;49.704;9.908;2022-12-19T03:22:47;44.80;;;22.98;;
27670;SDS011;15077;49.704;9.908;2022-12-19T03:25:12;43.30;;;22.85;;
27670;SDS011;15077;49.704;9.908;2022-12-19T03:27:38;45.58;;;22.27;;
27670;SDS011;15077;49.704;9.908;2022-12-19T03:30:06;51.22;;;25.00;;
27670;SDS011;15077;49.704;9.908;2022-12-19T03:32:38;49.25;;;23.08;;
27670;SDS011;15077;49.704;9.908;2022-12-19T03:37:41;50.75;;;24.98;;
27670;SDS011;15077;49.704;9.908;2022-12-19T03:40:13;51.03;;;24.50;;
27670;SDS011;15077;49.704;9.908;2022-12-19T03:42:48;48.30;;;24.52;;
27670;SDS011;15077;49.704;9.908;2022-12-19T03:48:32;41.60;;;20.33;;
27670;SDS011;15077;49.704;9.908;2022-12-19T03:54:14;38.05;;;18.63;;
27670;SDS011;15077;49.704;9.908;2022-12-19T03:59:55;35.58;;;18.15;;
27670;SDS011;15077;49.704;9.908;2022-12-19T04:02:33;42.33;;;21.25;;
27670;SDS011;15077;49.704;9.908;2022-12-19T04:05:05;42.65;;;20.42;;
27670;SDS011;15077;49.704;9.908;2022-12-19T04:07:34;38.85;;;19.63;;
27670;SDS011;15077;49.704;9.908;2022-12-19T04:10:04;43.58;;;23.20;;
27670;SDS011;15077;49.704;9.908;2022-12-19T04:12:35;51.33;;;24.57;;
27670;SDS011;15077;49.704;9.908;2022-12-19T04:15:09;51.33;;;26.05;;
27670;SDS011;15077;49.704;9.908;2022-12-19T04:17:49;50.90;;;24.50;;
27670;SDS011;15077;49.704;9.908;2022-12-19T04:20:26;48.88;;;24.65;;
27670;SDS011;15077;49.704;9.908;2022-12-19T04:23:12;42.08;;;21.65;;
27670;SDS011;15077;49.704;9.908;2022-12-19T04:28:24;51.60;;;25.08;;
27670;SDS011;15077;49.704;9.908;2022-12-19T04:31:13;52.80;;;27.13;;
27670;SDS011;15077;49.704;9.908;2022-12-19T04:33:41;46.28;;;21.58;;
27670;SDS011;15077;49.704;9.908;2022-12-19T04:36:07;49.65;;;25.20;;
27670;SDS011;15077;49.704;9.908;2022-12-19T04:38:34;43.33;;;22.38;;
27670;SDS011;15077;49.704;9.908;2022-12-19T04:41:01;41.30;;;21.33;;
27670;SDS011;15077;49.704;9.908;2022-12-19T04:43:27;45.92;;;22.85;;
27670;SDS011;15077;49.704;9.908;2022-12-19T04:45:52;39.97;;;20.55;;
27670;SDS011;15077;49.704;9.908;2022-12-19T04:48:18;31.13;;;14.93;;
27670;SDS011;15077;49.704;9.908;2022-12-19T04:50:44;43.55;;;20.40;;
27670;SDS011;15077;49.704;9.908;2022-12-19T04:53:10;39.35;;;20.42;;
27670;SDS011;15077;49.704;9.908;2022-12-19T04:55:35;36.63;;;20.23;;
27670;SDS011;15077;49.704;9.908;2022-12-19T04:58:04;41.85;;;21.38;;
27670;SDS011;15077;49.704;9.908;2022-12-19T05:00:31;33.00;;;18.33;;
27670;SDS011;15077;49.704;9.908;2022-12-19T05:02:58;39.72;;;19.85;;
27670;SDS011;15077;49.704;9.908;2022-12-19T05:05:24;35.22;;;17.77;;
27670;SDS011;15077;49.704;9.908;2022-12-19T05:07:50;39.72;;;20.10;;
27670;SDS011;15077;49.704;9.908;2022-12-19T05:10:15;35.33;;;18.60;;
27670;SDS011;15077;49.704;9.908;2022-12-19T05:12:42;35.17;;;17.70;;
27670;SDS011;15077;49.704;9.908;2022-12-19T05:15:07;38.88;;;18.63;;
27670;SDS011;15077;49.704;9.908;2022-12-19T05:17:34;56.13;;;26.40;;
27670;SDS011;15077;49.704;9.908;2022-12-19T05:20:00;49.70;;;23.63;;
27670;SDS011;15077;49.704;9.908;2022-12-19T05:22:26;49.83;;;25.48;;
27670;SDS011;15077;49.704;9.908;2022-12-19T05:24:52;38.10;;;19.60;;
27670;SDS011;15077;49.704;9.908;2022-12-19T05:27:17;39.25;;;18.52;;
27670;SDS011;15077;49.704;9.908;2022-12-19T05:29:43;33.17;;;18.27;;
27670;SDS011;15077;49.704;9.908;2022-12-19T05:32:09;35.20;;;18.13;;
27670;SDS011;15077;49.704;9.908;2022-12-19T05:34:35;40.25;;;21.20;;
27670;SDS011;15077;49.704;9.908;2022-12-19T05:37:00;42.63;;;22.10;;
27670;SDS011;15077;49.704;9.908;2022-12-19T05:39:27;43.97;;;21.70;;
27670;SDS011;15077;49.704;9.908;2022-12-19T05:41:54;33.15;;;18.70;;
27670;SDS011;15077;49.704;9.908;2022-12-19T05:44:20;40.33;;;20.00;;
27670;SDS011;15077;49.704;9.908;2022-12-19T05:46:45;36.95;;;20.67;;
27670;SDS011;15077;49.704;9.908;2022-12-19T05:49:11;45.75;;;21.65;;
27670;SDS011;15077;49.704;9.908;2022-12-19T05:51:37;43.67;;;19.77;;
27670;SDS011;15077;49.704;9.908;2022-12-19T05:54:03;36.40;;;19.15;;
27670;SDS011;15077;49.704;9.908;2022-12-19T05:56:29;26.58;;;14.18;;
27670;SDS011;15077;49.704;9.908;2022-12-19T05:58:54;32.60;;;17.17;;
27670;SDS011;15077;49.704;9.908;2022-12-19T06:01:22;32.67;;;16.60;;
27670;SDS011;15077;49.704;9.908;2022-12-19T06:03:50;34.75;;;17.95;;
27670;SDS011;15077;49.704;9.908;2022-12-19T06:06:19;33.00;;;16.27;;
27670;SDS011;15077;49.704;9.908;2022-12-19T06:08:53;37.13;;;18.50;;
27670;SDS011;15077;49.704;9.908;2022-12-19T06:11:21;34.90;;;17.48;;
27670;SDS011;15077;49.704;9.908;2022-12-19T06:13:47;28.33;;;14.20;;
27670;SDS011;15077;49.704;9.908;2022-12-19T06:16:14;34.25;;;18.10;;
27670;SDS011;15077;49.704;9.908;2022-12-19T06:18:43;32.80;;;16.95;;
27670;SDS011;15077;49.704;9.908;2022-12-19T06:21:14;36.50;;;18.02;;
27670;SDS011;15077;49.704;9.908;2022-12-19T06:23:43;28.95;;;13.90;;
27670;SDS011;15077;49.704;9.908;2022-12-19T06:26:10;29.98;;;16.58;;
27670;SDS011;15077;49.704;9.908;2022-12-19T06:28:38;20.63;;;11.15;;
27670;SDS011;15077;49.704;9.908;2022-12-19T06:31:04;29.17;;;14.68;;
27670;SDS011;15077;49.704;9.908;2022-12-19T06:33:32;33.83;;;16.48;;
27670;SDS011;15077;49.704;9.908;2022-12-19T06:35:59;34.95;;;17.00;;
27670;SDS011;15077;49.704;9.908;2022-12-19T06:38:38;34.95;;;16.77;;
27670;SDS011;15077;49.704;9.908;2022-12-19T06:41:04;32.22;;;16.98;;
27670;SDS011;15077;49.704;9.908;2022-12-19T06:43:49;28.58;;;15.60;;
27670;SDS011;15077;49.704;9.908;2022-12-19T06:46:15;37.63;;;18.40;;
27670;SDS011;15077;49.704;9.908;2022-12-19T06:48:40;43.65;;;21.42;;
27670;SDS011;15077;49.704;9.908;2022-12-19T06:51:06;32.05;;;15.30;;
27670;SDS011;15077;49.704;9.908;2022-12-19T06:53:32;29.52;;;13.40;;
27670;SDS011;15077;49.704;9.908;2022-12-19T06:55:58;24.85;;;13.60;;
27670;SDS011;15077;49.704;9.908;2022-12-19T06:58:24;35.72;;;17.95;;
27670;SDS011;15077;49.704;9.908;2022-12-19T07:00:50;36.55;;;17.52;;
27670;SDS011;15077;49.704;9.908;2022-12-19T07:03:18;33.47;;;17.83;;
27670;SDS011;15077;49.704;9.908;2022-12-19T07:05:53;29.58;;;16.15;;
27670;SDS011;15077;49.704;9.908;2022-12-19T07:08:19;31.92;;;16.73;;
27670;SDS011;15077;49.704;9.908;2022-12-19T07:10:45;29.50;;;14.63;;
27670;SDS011;15077;49.704;9.908;2022-12-19T07:13:11;31.10;;;15.55;;
27670;SDS011;15077;49.704;9.908;2022-12-19T07:15:36;26.65;;;14.50;;
27670;SDS011;15077;49.704;9.908;2022-12-19T07:18:03;31.23;;;16.88;;
27670;SDS011;15077;49.704;9.908;2022-12-19T07:20:32;36.92;;;17.88;;
27670;SDS011;15077;49.704;9.908;2022-12-19T07:23:00;28.55;;;15.98;;
27670;SDS011;15077;49.704;9.908;2022-12-19T07:25:28;30.88;;;16.52;;
27670;SDS011;15077;49.704;9.908;2022-12-19T07:27:55;30.92;;;15.30;;
27670;SDS011;15077;49.704;9.908;2022-12-19T07:30:21;35.97;;;18.02;;
27670;SDS011;15077;49.704;9.908;2022-12-19T07:32:47;52.13;;;26.30;;
27670;SDS011;15077;49.704;9.908;2022-12-19T07:35:13;43.00;;;21.80;;
27670;SDS011;15077;49.704;9.908;2022-12-19T07:37:39;43.45;;;20.75;;
27670;SDS011;15077;49.704;9.908;2022-12-19T07:40:05;35.33;;;18.10;;
27670;SDS011;15077;49.704;9.908;2022-12-19T07:42:31;36.75;;;19.65;;
27670;SDS011;15077;49.704;9.908;2022-12-19T07:44:58;49.03;;;25.10;;
27670;SDS011;15077;49.704;9.908;2022-12-19T07:47:25;41.90;;;19.42;;
27670;SDS011;15077;49.704;9.908;2022-12-19T07:49:51;41.75;;;20.25;;
27670;SDS011;15077;49.704;9.908;2022-12-19T07:52:17;41.17;;;21.58;;
27670;SDS011;15077;49.704;9.908;2022-12-19T07:54:44;44.72;;;22.75;;
27670;SDS011;15077;49.704;9.908;2022-12-19T07:57:09;44.95;;;22.00;;
27670;SDS011;15077;49.704;9.908;2022-12-19T07:59:35;45.13;;;22.77;;
27670;SDS011;15077;49.704;9.908;2022-12-19T08:02:01;46.83;;;23.15;;
27670;SDS011;15077;49.704;9.908;2022-12-19T08:04:27;54.88;;;26.35;;
27670;SDS011;15077;49.704;9.908;2022-12-19T08:06:52;46.65;;;23.02;;
27670;SDS011;15077;49.704;9.908;2022-12-19T08:09:18;43.20;;;21.95;;
27670;SDS011;15077;49.704;9.908;2022-12-19T08:11:44;37.97;;;20.15;;
27670;SDS011;15077;49.704;9.908;2022-12-19T08:14:10;48.22;;;23.75;;
27670;SDS011;15077;49.704;9.908;2022-12-19T08:16:35;45.63;;;23.88;;
27670;SDS011;15077;49.704;9.908;2022-12-19T08:19:02;44.50;;;23.13;;
27670;SDS011;15077;49.704;9.908;2022-12-19T08:21:27;39.42;;;19.70;;
27670;SDS011;15077;49.704;9.908;2022-12-19T08:23:54;39.95;;;20.42;;
27670;SDS011;15077;49.704;9.908;2022-12-19T08:26:21;53.35;;;25.98;;
27670;SDS011;15077;49.704;9.908;2022-12-19T08:28:51;40.60;;;21.67;;
27670;SDS011;15077;49.704;9.908;2022-12-19T08:31:20;44.75;;;21.77;;
27670;SDS011;15077;49.704;9.908;2022-12-19T08:33:49;39.45;;;22.55;;
27670;SDS011;15077;49.704;9.908;2022-12-19T08:36:21;45.55;;;20.23;;
27670;SDS011;15077;49.704;9.908;2022-12-19T08:38:50;37.75;;;19.13;;
27670;SDS011;15077;49.704;9.908;2022-12-19T08:41:16;32.70;;;17.30;;
27670;SDS011;15077;49.704;9.908;2022-12-19T08:43:47;39.33;;;22.02;;
27670;SDS011;15077;49.704;9.908;2022-12-19T08:48:41;35.58;;;18.75;;
27670;SDS011;15077;49.704;9.908;2022-12-19T08:51:09;38.92;;;20.95;;
27670;SDS011;15077;49.704;9.908;2022-12-19T08:53:37;46.10;;;23.45;;
27670;SDS011;15077;49.704;9.908;2022-12-19T08:58:38;43.58;;;22.27;;
27670;SDS011;15077;49.704;9.908;2022-12-19T09:01:06;50.22;;;24.90;;
27670;SDS011;15077;49.704;9.908;2022-12-19T09:03:40;48.80;;;25.00;;
27670;SDS011;15077;49.704;9.908;2022-12-19T09:06:07;47.08;;;25.02;;
27670;SDS011;15077;49.704;9.908;2022-12-19T09:08:35;48.30;;;26.02;;
27670;SDS011;15077;49.704;9.908;2022-12-19T09:11:13;50.70;;;26.40;;
27670;SDS011;15077;49.704;9.908;2022-12-19T09:13:41;47.88;;;22.30;;
27670;SDS011;15077;49.704;9.908;2022-12-19T09:16:16;45.55;;;23.77;;
27670;SDS011;15077;49.704;9.908;2022-12-19T09:18:46;47.53;;;23.83;;
27670;SDS011;15077;49.704;9.908;2022-12-19T09:21:14;45.10;;;23.77;;
27670;SDS011;15077;49.704;9.908;2022-12-19T09:23:42;43.33;;;21.65;;
27670;SDS011;15077;49.704;9.908;2022-12-19T09:26:12;41.92;;;22.38;;
27670;SDS011;15077;49.704;9.908;2022-12-19T09:28:39;39.60;;;22.50;;
27670;SDS011;15077;49.704;9.908;2022-12-19T09:31:06;42.97;;;22.92;;
27670;SDS011;15077;49.704;9.908;2022-12-19T09:33:36;41.60;;;20.63;;
27670;SDS011;15077;49.704;9.908;2022-12-19T09:36:03;43.58;;;22.48;;
27670;SDS011;15077;49.704;9.908;2022-12-19T09:38:31;43.97;;;24.30;;
27670;SDS011;15077;49.704;9.908;2022-12-19T09:46:47;44.35;;;22.10;;
27670;SDS011;15077;49.704;9.908;2022-12-19T09:49:26;44.83;;;23.55;;
27670;SDS011;15077;49.704;9.908;2022-12-19T09:52:06;47.75;;;24.40;;
27670;SDS011;15077;49.704;9.908;2022-12-19T09:54:43;45.53;;;24.48;;
27670;SDS011;15077;49.704;9.908;2022-12-19T09:59:59;49.83;;;26.42;;
27670;SDS011;15077;49.704;9.908;2022-12-19T10:02:43;46.10;;;24.20;;
27670;SDS011;15077;49.704;9.908;2022-12-19T10:08:25;51.17;;;25.92;;
27670;SDS011;15077;49.704;9.908;2022-12-19T10:11:06;45.78;;;24.88;;
27670;SDS011;15077;49.704;9.908;2022-12-19T10:17:43;54.60;;;27.10;;
27670;SDS011;15077;49.704;9.908;2022-12-19T10:20:53;44.00;;;22.80;;
27670;SDS011;15077;49.704;9.908;2022-12-19T10:26:08;38.60;;;21.63;;
27670;SDS011;15077;49.704;9.908;2022-12-19T10:28:59;40.15;;;22.98;;
27670;SDS011;15077;49.704;9.908;2022-12-19T10:34:32;48.92;;;25.50;;
27670;SDS011;15077;49.704;9.908;2022-12-19T10:37:12;53.33;;;25.40;;
27670;SDS011;15077;49.704;9.908;2022-12-19T10:40:08;47.47;;;26.27;;
27670;SDS011;15077;49.704;9.908;2022-12-19T10:42:59;39.63;;;21.50;;
27670;SDS011;15077;49.704;9.908;2022-12-19T10:45:44;38.33;;;21.17;;
27670;SDS011;15077;49.704;9.908;2022-12-19T10:48:20;47.67;;;24.92;;
27670;SDS011;15077;49.704;9.908;2022-12-19T10:50:47;47.03;;;27.42;;
27670;SDS011;15077;49.704;9.908;2022-12-19T10:53:13;46.97;;;23.95;;
27670;SDS011;15077;49.704;9.908;2022-12-19T10:55:48;46.40;;;24.33;;
27670;SDS011;15077;49.704;9.908;2022-12-19T11:03:29;48.83;;;24.33;;
27670;SDS011;15077;49.704;9.908;2022-12-19T11:05:58;52.70;;;26.60;;
27670;SDS011;15077;49.704;9.908;2022-12-19T11:08:27;48.00;;;26.35;;
27670;SDS011;15077;49.704;9.908;2022-12-19T11:16:03;40.63;;;21.77;;
27670;SDS011;15077;49.704;9.908;2022-12-19T11:18:35;49.38;;;25.27;;
27670;SDS011;15077;49.704;9.908;2022-12-19T11:21:05;45.40;;;25.55;;
27670;SDS011;15077;49.704;9.908;2022-12-19T11:29:02;33.30;;;18.10;;
27670;SDS011;15077;49.704;9.908;2022-12-19T11:31:53;47.40;;;25.10;;
27670;SDS011;15077;49.704;9.908;2022-12-19T11:34:27;43.83;;;25.00;;
27670;SDS011;15077;49.704;9.908;2022-12-19T11:40:19;47.92;;;23.42;;
27670;SDS011;15077;49.704;9.908;2022-12-19T11:43:39;45.05;;;22.83;;
27670;SDS011;15077;49.704;9.908;2022-12-19T11:49:07;45.78;;;24.88;;
27670;SDS011;15077;49.704;9.908;2022-12-19T11:55:04;42.38;;;23.02;;
27670;SDS011;15077;49.704;9.908;2022-12-19T11:57:44;43.03;;;23.05;;
27670;SDS011;15077;49.704;9.908;2022-12-19T12:00:19;40.00;;;21.80;;
27670;SDS011;15077;49.704;9.908;2022-12-19T12:06:12;44.53;;;23.33;;
27670;SDS011;15077;49.704;9.908;2022-12-19T12:08:57;41.38;;;23.83;;
27670;SDS011;15077;49.704;9.908;2022-12-19T12:25:46;42.28;;;23.95;;
27670;SDS011;15077;49.704;9.908;2022-12-19T12:35:56;44.20;;;23.30;;
27670;SDS011;15077;49.704;9.908;2022-12-19T12:39:02;45.10;;;24.38;;
27670;SDS011;15077;49.704;9.908;2022-12-19T12:44:27;46.40;;;21.50;;
27670;SDS011;15077;49.704;9.908;2022-12-19T12:47:45;38.65;;;21.88;;
27670;SDS011;15077;49.704;9.908;2022-12-19T12:49:56;41.30;;;22.20;;
27670;SDS011;15077;49.704;9.908;2022-12-19T12:52:42;45.03;;;24.10;;
27670;SDS011;15077;49.704;9.908;2022-12-19T12:55:29;46.10;;;24.50;;
27670;SDS011;15077;49.704;9.908;2022-12-19T12:58:01;47.28;;;25.95;;
27670;SDS011;15077;49.704;9.908;2022-12-19T13:00:34;44.65;;;24.17;;
27670;SDS011;15077;49.704;9.908;2022-12-19T13:11:00;38.40;;;20.95;;
27670;SDS011;15077;49.704;9.908;2022-12-19T13:13:47;36.25;;;20.17;;
27670;SDS011;15077;49.704;9.908;2022-12-19T13:19:22;39.33;;;20.40;;
27670;SDS011;15077;49.704;9.908;2022-12-19T13:45:58;26.20;;;14.43;;
27670;SDS011;15077;49.704;9.908;2022-12-19T13:48:30;34.75;;;17.60;;
27670;SDS011;15077;49.704;9.908;2022-12-19T13:51:08;37.05;;;19.33;;
27670;SDS011;15077;49.704;9.908;2022-12-19T13:53:37;29.50;;;16.58;;
27670;SDS011;15077;49.704;9.908;2022-12-19T13:56:16;29.67;;;16.00;;
27670;SDS011;15077;49.704;9.908;2022-12-19T13:58:53;33.67;;;19.42;;
27670;SDS011;15077;49.704;9.908;2022-12-19T14:01:29;31.40;;;16.88;;
27670;SDS011;15077;49.704;9.908;2022-12-19T14:04:09;29.77;;;17.27;;
27670;SDS011;15077;49.704;9.908;2022-12-19T14:06:58;30.55;;;15.95;;
27670;SDS011;15077;49.704;9.908;2022-12-19T14:09:50;27.40;;;15.52;;
27670;SDS011;15077;49.704;9.908;2022-12-19T14:12:24;24.95;;;14.52;;
27670;SDS011;15077;49.704;9.908;2022-12-19T14:15:46;23.73;;;13.63;;
27670;SDS011;15077;49.704;9.908;2022-12-19T14:20:49;28.20;;;14.40;;
27670;SDS011;15077;49.704;9.908;2022-12-19T14:23:31;26.90;;;15.20;;
27670;SDS011;15077;49.704;9.908;2022-12-19T14:25:56;29.85;;;15.93;;
27670;SDS011;15077;49.704;9.908;2022-12-19T14:31:25;25.73;;;13.70;;
27670;SDS011;15077;49.704;9.908;2022-12-19T14:33:52;21.08;;;12.95;;
27670;SDS011;15077;49.704;9.908;2022-12-19T14:36:24;23.38;;;12.38;;
27670;SDS011;15077;49.704;9.908;2022-12-19T14:38:54;22.25;;;11.93;;
27670;SDS011;15077;49.704;9.908;2022-12-19T14:44:12;18.75;;;9.50;;
27670;SDS011;15077;49.704;9.908;2022-12-19T14:46:41;16.08;;;9.20;;
27670;SDS011;15077;49.704;9.908;2022-12-19T14:49:21;15.63;;;8.80;;
27670;SDS011;15077;49.704;9.908;2022-12-19T14:51:56;14.93;;;8.60;;
27670;SDS011;15077;49.704;9.908;2022-12-19T14:54:22;19.85;;;9.65;;
27670;SDS011;15077;49.704;9.908;2022-12-19T15:05:02;21.27;;;12.07;;
27670;SDS011;15077;49.704;9.908;2022-12-19T15:07:39;17.90;;;10.98;;
27670;SDS011;15077;49.704;9.908;2022-12-19T15:10:18;16.27;;;9.60;;
27670;SDS011;15077;49.704;9.908;2022-12-19T15:15:40;17.92;;;9.68;;
27670;SDS011;15077;49.704;9.908;2022-12-19T15:18:24;15.45;;;9.68;;
27670;SDS011;15077;49.704;9.908;2022-12-19T15:20:58;17.13;;;10.73;;
27670;SDS011;15077;49.704;9.908;2022-12-19T15:23:26;23.77;;;13.88;;
27670;SDS011;15077;49.704;9.908;2022-12-19T15:25:54;25.27;;;13.63;;
27670;SDS011;15077;49.704;9.908;2022-12-19T15:28:28;21.10;;;12.05;;
27670;SDS011;15077;49.704;9.908;2022-12-19T15:33:45;26.73;;;12.70;;
27670;SDS011;15077;49.704;9.908;2022-12-19T15:36:11;19.50;;;12.07;;
27670;SDS011;15077;49.704;9.908;2022-12-19T15:38:37;20.48;;;12.02;;
27670;SDS011;15077;49.704;9.908;2022-12-19T15:41:02;17.52;;;10.65;;
27670;SDS011;15077;49.704;9.908;2022-12-19T15:43:28;18.92;;;10.98;;
27670;SDS011;15077;49.704;9.908;2022-12-19T15:45:56;20.88;;;11.38;;
27670;SDS011;15077;49.704;9.908;2022-12-19T15:48:23;16.98;;;9.45;;
27670;SDS011;15077;49.704;9.908;2022-12-19T15:50:50;19.17;;;10.88;;
27670;SDS011;15077;49.704;9.908;2022-12-19T15:53:18;15.07;;;9.95;;
27670;SDS011;15077;49.704;9.908;2022-12-19T15:55:46;17.55;;;10.05;;
27670;SDS011;15077;49.704;9.908;2022-12-19T15:58:13;20.65;;;10.13;;
27670;SDS011;15077;49.704;9.908;2022-12-19T16:00:42;21.42;;;11.68;;
27670;SDS011;15077;49.704;9.908;2022-12-19T16:03:29;18.70;;;11.57;;
27670;SDS011;15077;49.704;9.908;2022-12-19T16:05:55;19.75;;;11.70;;
27670;SDS011;15077;49.704;9.908;2022-12-19T16:08:21;18.67;;;10.70;;
27670;SDS011;15077;49.704;9.908;2022-12-19T16:10:51;18.33;;;10.93;;
27670;SDS011;15077;49.704;9.908;2022-12-19T16:13:24;20.73;;;12.55;;
27670;SDS011;15077;49.704;9.908;2022-12-19T16:15:53;18.88;;;10.30;;
27670;SDS011;15077;49.704;9.908;2022-12-19T16:18:21;20.75;;;10.70;;
27670;SDS011;15077;49.704;9.908;2022-12-19T16:20:47;19.00;;;10.23;;
27670;SDS011;15077;49.704;9.908;2022-12-19T16:23:14;22.85;;;11.70;;
27670;SDS011;15077;49.704;9.908;2022-12-19T16:25:47;20.75;;;12.13;;
27670;SDS011;15077;49.704;9.908;2022-12-19T16:28:30;19.13;;;11.05;;
27670;SDS011;15077;49.704;9.908;2022-12-19T16:30:59;18.50;;;9.23;;
27670;SDS011;15077;49.704;9.908;2022-12-19T16:33:40;18.45;;;11.30;;
27670;SDS011;15077;49.704;9.908;2022-12-19T16:36:07;19.25;;;10.90;;
27670;SDS011;15077;49.704;9.908;2022-12-19T16:38:34;20.23;;;11.48;;
27670;SDS011;15077;49.704;9.908;2022-12-19T16:41:00;17.27;;;9.80;;
27670;SDS011;15077;49.704;9.908;2022-12-19T16:43:35;17.73;;;10.10;;
27670;SDS011;15077;49.704;9.908;2022-12-19T16:46:05;17.75;;;10.65;;
27670;SDS011;15077;49.704;9.908;2022-12-19T16:48:31;22.95;;;12.75;;
27670;SDS011;15077;49.704;9.908;2022-12-19T16:50:59;21.95;;;13.00;;
27670;SDS011;15077;49.704;9.908;2022-12-19T16:53:26;23.92;;;12.93;;
27670;SDS011;15077;49.704;9.908;2022-12-19T16:55:53;21.05;;;11.77;;
27670;SDS011;15077;49.704;9.908;2022-12-19T16:58:22;18.75;;;11.35;;
27670;SDS011;15077;49.704;9.908;2022-12-19T17:00:53;16.33;;;10.00;;
27670;SDS011;15077;49.704;9.908;2022-12-19T17:03:35;18.77;;;10.68;;
27670;SDS011;15077;49.704;9.908;2022-12-19T17:06:05;17.55;;;10.77;;
27670;SDS011;15077;49.704;9.908;2022-12-19T17:08:40;19.55;;;10.82;;
27670;SDS011;15077;49.704;9.908;2022-12-19T17:11:10;21.83;;;12.23;;
27670;SDS011;15077;49.704;9.908;2022-12-19T17:13:46;19.15;;;11.18;;
27670;SDS011;15077;49.704;9.908;2022-12-19T17:16:16;17.13;;;10.75;;
27670;SDS011;15077;49.704;9.908;2022-12-19T17:18:42;17.25;;;9.90;;
27670;SDS011;15077;49.704;9.908;2022-12-19T17:21:17;13.85;;;9.60;;
27670;SDS011;15077;49.704;9.908;2022-12-19T17:23:46;17.42;;;9.80;;
27670;SDS011;15077;49.704;9.908;2022-12-19T17:26:13;16.65;;;10.32;;
27670;SDS011;15077;49.704;9.908;2022-12-19T17:28:39;18.50;;;11.20;;
27670;SDS011;15077;49.704;9.908;2022-12-19T17:31:10;18.30;;;11.20;;
27670;SDS011;15077;49.704;9.908;2022-12-19T17:33:45;16.83;;;10.70;;
27670;SDS011;15077;49.704;9.908;2022-12-19T17:36:12;19.08;;;11.95;;
27670;SDS011;15077;49.704;9.908;2022-12-19T17:38:39;22.25;;;12.13;;
27670;SDS011;15077;49.704;9.908;2022-12-19T17:41:08;28.25;;;17.67;;
27670;SDS011;15077;49.704;9.908;2022-12-19T17:43:40;29.90;;;15.77;;